createdAt,value
2023-05-27T00:19:41.655Z,51.91
2023-05-27T00:49:41.665Z,52.66
2023-05-27T01:19:41.665Z,53.22
2023-05-27T01:49:41.678Z,53.85
2023-05-27T02:19:41.672Z,54.75
2023-05-27T02:49:41.673Z,55.45
2023-05-27T03:19:41.675Z,55.74
2023-05-27T03:49:41.722Z,55.99
2023-05-27T04:19:41.686Z,56.21
2023-05-27T04:49:41.693Z,56.85
2023-05-27T05:19:41.708Z,57.07
2023-05-27T05:49:41.706Z,56.55
2023-05-27T06:19:41.710Z,56.22
2023-05-27T06:49:41.710Z,55.79
2023-05-27T07:19:41.730Z,55.43
2023-05-27T07:49:43.097Z,54.96
2023-05-27T08:19:41.733Z,54.43
2023-05-27T08:49:41.734Z,53.92
2023-05-27T09:19:41.737Z,53.42
2023-05-27T09:49:41.740Z,52.74
2023-05-27T10:19:41.745Z,51.99
2023-05-27T10:49:41.761Z,51.25
2023-05-27T11:19:41.761Z,50.37
2023-05-27T11:49:41.767Z,49.49
2023-05-27T12:19:41.774Z,47.52
2023-05-27T12:49:41.760Z,45.27
2023-05-27T13:19:41.756Z,42.42
2023-05-27T13:49:41.778Z,41.84
2023-05-27T14:19:41.773Z,41.22
2023-05-27T14:49:41.805Z,41.13
2023-05-27T15:19:41.804Z,39.12
2023-05-27T15:49:41.801Z,39.37
2023-05-27T16:19:41.829Z,36.42
2023-05-27T16:49:41.810Z,38.21
2023-05-27T17:19:41.820Z,34.01
2023-05-27T17:49:41.824Z,34.43
2023-05-27T18:19:41.821Z,36.41
2023-05-27T18:49:41.847Z,37.23
2023-05-27T19:19:41.833Z,38.35
2023-05-27T19:49:41.831Z,39.69
2023-05-27T20:19:41.847Z,40.92
2023-05-27T20:49:41.845Z,42.2
2023-05-27T21:19:41.844Z,43.38
2023-05-27T21:49:41.857Z,44.46
2023-05-27T22:19:41.841Z,45.53
2023-05-27T22:49:41.868Z,46.59
2023-05-27T23:19:41.867Z,47.4
2023-05-27T23:49:41.858Z,48.4
